Time;durP1;ratioP1;P1;durP2;ratioP2;P2;SDS_P1;SDS_P2;PMS_P1;PMS_P2;Temp;Humidity;BMP_temperature;BMP_pressure;BME280_temperature;BME280_humidity;BME280_pressure;Samples;Min_cycle;Max_cycle;Signal;HPM_P1;HPM_P2
2022/09/03 00:00:25;;;;;;;2.43;1.60;;;20.10;49.30;;;;;;5080035;28;20874;-45
2022/09/03 00:03:04;;;;;;;1.50;1.40;;;20.10;49.70;;;;;;5062668;28;20463;-45
2022/09/03 00:05:44;;;;;;;1.43;1.33;;;20.00;48.90;;;;;;5078703;28;20474;-44
2022/09/03 00:08:37;;;;;;;2.00;1.53;;;19.90;49.50;;;;;;5059334;28;20495;-44
2022/09/03 00:11:50;;;;;;;1.77;1.67;;;19.90;49.80;;;;;;5078480;28;20460;-44
2022/09/03 00:14:50;;;;;;;1.87;1.10;;;19.90;49.30;;;;;;5043302;28;20448;-44
2022/09/03 00:17:29;;;;;;;1.53;1.43;;;19.90;49.30;;;;;;5069654;28;20485;-44
2022/09/03 00:20:01;;;;;;;1.37;1.27;;;19.90;49.20;;;;;;5069550;28;20487;-44
2022/09/03 00:22:51;;;;;;;1.43;1.30;;;19.90;49.30;;;;;;5079959;28;20492;-43
2022/09/03 00:25:25;;;;;;;1.47;1.20;;;19.90;49.30;;;;;;5079285;28;20905;-43
2022/09/03 00:27:56;;;;;;;1.50;1.40;;;19.90;49.30;;;;;;5058002;28;20491;-43
2022/09/03 00:30:24;;;;;;;2.30;1.33;;;20.00;49.10;;;;;;5075846;28;20469;-43
2022/09/03 00:32:56;;;;;;;1.30;1.20;;;19.90;49.20;;;;;;5080960;28;20456;-44
2022/09/03 00:35:34;;;;;;;2.00;1.23;;;19.80;49.60;;;;;;5082588;28;20458;-43
2022/09/03 00:38:01;;;;;;;1.60;1.50;;;19.80;49.50;;;;;;5079220;28;20828;-43
2022/09/03 00:40:34;;;;;;;2.40;1.43;;;19.80;49.40;;;;;;5065115;28;20813;-44
2022/09/03 00:43:08;;;;;;;2.23;1.20;;;19.90;49.30;;;;;;5061467;28;20450;-44
2022/09/03 00:45:43;;;;;;;1.43;1.33;;;19.80;49.50;;;;;;5080555;28;20460;-44
2022/09/03 00:48:30;;;;;;;1.63;1.47;;;19.80;49.50;;;;;;5082810;28;20495;-44
2022/09/03 00:51:02;;;;;;;2.33;1.37;;;19.80;49.70;;;;;;5064592;28;20551;-44
2022/09/03 00:53:29;;;;;;;1.43;1.33;;;19.80;49.90;;;;;;5071113;28;20464;-44
2022/09/03 00:56:19;;;;;;;2.33;1.30;;;19.70;49.90;;;;;;5087510;28;20461;-44
2022/09/03 00:59:02;;;;;;;2.23;1.30;;;19.70;49.90;;;;;;5078339;28;20480;-44
2022/09/03 01:01:38;;;;;;;1.30;1.20;;;19.70;50.00;;;;;;5077685;28;20448;-44
2022/09/03 01:04:23;;;;;;;1.60;1.37;;;19.70;50.10;;;;;;5082550;28;20513;-44
2022/09/03 01:07:09;;;;;;;2.97;1.37;;;19.70;50.00;;;;;;5086294;28;20471;-44
2022/09/03 01:10:11;;;;;;;1.17;1.07;;;19.60;50.20;;;;;;5073384;28;20459;-43
2022/09/03 01:12:53;;;;;;;1.93;1.03;;;19.50;50.40;;;;;;5023200;28;20981;-44
2022/09/03 01:15:23;;;;;;;2.90;1.80;;;19.50;51.40;;;;;;5078565;28;20472;-44
2022/09/03 01:17:49;;;;;;;1.37;1.27;;;19.60;50.80;;;;;;5066574;28;20492;-43
2022/09/03 01:20:28;;;;;;;1.97;1.50;;;19.70;50.60;;;;;;5046227;28;20814;-43
2022/09/03 01:23:26;;;;;;;1.30;1.20;;;19.70;50.60;;;;;;5062893;28;20467;-43
2022/09/03 01:25:56;;;;;;;1.43;1.33;;;19.60;50.40;;;;;;5083903;28;20469;-44
2022/09/03 01:29:10;;;;;;;1.17;1.17;;;19.40;50.60;;;;;;5083570;28;21435;-44
2022/09/03 01:31:51;;;;;;;1.40;1.30;;;19.30;50.90;;;;;;5074534;28;20471;-44
2022/09/03 01:34:30;;;;;;;2.07;1.60;;;19.30;50.80;;;;;;5046612;28;20965;-43
2022/09/03 01:37:00;;;;;;;1.73;1.30;;;19.20;51.00;;;;;;5067208;28;20815;-43
2022/09/03 01:39:46;;;;;;;1.60;1.50;;;19.10;51.30;;;;;;5083855;28;20457;-44
2022/09/03 01:42:31;;;;;;;1.37;1.23;;;19.20;51.10;;;;;;5081697;28;20449;-43
2022/09/03 01:45:11;;;;;;;7.03;1.97;;;19.20;51.20;;;;;;5079697;28;20488;-43
2022/09/03 01:48:09;;;;;;;1.30;1.20;;;19.10;51.50;;;;;;5078769;28;20871;-43
2022/09/03 01:50:56;;;;;;;2.40;1.57;;;19.00;51.60;;;;;;5063702;28;20467;-44
2022/09/03 01:53:44;;;;;;;1.80;1.70;;;19.00;51.70;;;;;;5074841;28;20471;-44
2022/09/03 01:56:24;;;;;;;1.93;1.40;;;19.00;51.70;;;;;;5062716;28;20471;-43
2022/09/03 01:59:07;;;;;;;1.97;1.40;;;19.10;51.50;;;;;;5059407;28;20475;-44
2022/09/03 02:01:58;;;;;;;1.50;1.40;;;19.10;51.70;;;;;;5083594;28;20479;-44
2022/09/03 02:04:27;;;;;;;2.93;1.70;;;19.00;51.80;;;;;;5077214;28;20461;-44
2022/09/03 02:06:59;;;;;;;2.40;1.50;;;19.00;51.90;;;;;;5083716;28;20464;-44
2022/09/03 02:09:26;;;;;;;1.77;1.67;;;18.90;52.00;;;;;;5077111;28;21359;-44
2022/09/03 02:12:07;;;;;;;2.87;1.40;;;18.90;52.10;;;;;;5083247;28;20460;-43
2022/09/03 02:14:35;;;;;;;2.50;1.60;;;19.00;52.00;;;;;;5078695;28;21243;-43
2022/09/03 02:17:03;;;;;;;2.37;1.50;;;19.00;52.00;;;;;;5077454;28;20460;-43
2022/09/03 02:19:31;;;;;;;2.00;1.50;;;19.00;51.80;;;;;;5063942;28;20461;-43
2022/09/03 02:21:58;;;;;;;1.47;1.30;;;19.00;51.90;;;;;;5080888;28;20468;-44
2022/09/03 02:24:27;;;;;;;1.33;1.23;;;19.10;51.90;;;;;;5062579;28;20452;-44
2022/09/03 02:26:54;;;;;;;1.70;1.60;;;19.10;51.90;;;;;;5077377;28;23963;-43
2022/09/03 02:29:22;;;;;;;1.27;1.17;;;19.00;52.10;;;;;;5064951;28;20839;-43
2022/09/03 02:31:49;;;;;;;1.70;1.20;;;19.00;52.10;;;;;;5065433;28;20465;-43
2022/09/03 02:34:16;;;;;;;1.23;1.13;;;18.90;52.20;;;;;;5057072;28;20989;-43
2022/09/03 02:36:46;;;;;;;1.40;1.20;;;18.80;52.30;;;;;;5064357;28;20469;-44
2022/09/03 02:39:14;;;;;;;1.47;1.37;;;18.80;52.40;;;;;;5060354;28;21144;-44
2022/09/03 02:41:42;;;;;;;2.10;1.27;;;18.80;52.40;;;;;;5062697;28;20496;-44
2022/09/03 02:44:22;;;;;;;1.77;1.40;;;18.90;52.30;;;;;;5077418;28;20954;-44
2022/09/03 02:46:55;;;;;;;1.83;1.43;;;18.90;52.30;;;;;;5063164;28;20456;-44
2022/09/03 02:49:22;;;;;;;2.20;1.40;;;18.90;52.40;;;;;;5083149;28;20488;-44
2022/09/03 02:51:49;;;;;;;1.73;1.40;;;18.90;52.30;;;;;;5070651;28;20461;-44
2022/09/03 02:54:16;;;;;;;1.53;1.40;;;19.00;52.50;;;;;;5082971;28;20468;-44
2022/09/03 02:56:48;;;;;;;1.80;1.23;;;18.90;52.40;;;;;;5080365;28;20469;-44
2022/09/03 02:59:16;;;;;;;1.40;1.30;;;18.90;52.50;;;;;;5061718;28;20495;-44
2022/09/03 03:01:43;;;;;;;1.80;1.30;;;19.00;52.50;;;;;;5076202;28;21352;-44
2022/09/03 03:04:12;;;;;;;1.87;1.77;;;19.00;52.50;;;;;;5051618;28;20463;-44
2022/09/03 03:06:39;;;;;;;3.80;1.50;;;19.10;52.20;;;;;;5065462;28;20993;-44
2022/09/03 03:09:07;;;;;;;1.60;1.50;;;19.20;52.00;;;;;;5044386;28;20857;-44
2022/09/03 03:11:35;;;;;;;2.20;1.47;;;19.20;52.10;;;;;;5078013;28;20460;-44
2022/09/03 03:14:02;;;;;;;3.67;1.40;;;19.20;52.10;;;;;;5065749;28;20464;-44
2022/09/03 03:16:29;;;;;;;1.90;1.33;;;19.30;51.90;;;;;;5077140;28;20453;-44
2022/09/03 03:18:56;;;;;;;1.50;1.40;;;19.30;51.90;;;;;;5078797;28;20484;-44
2022/09/03 03:21:23;;;;;;;3.70;1.60;;;19.40;51.70;;;;;;5084042;28;20477;-45
2022/09/03 03:23:49;;;;;;;1.43;1.33;;;19.30;51.90;;;;;;5079624;28;20452;-45
2022/09/03 03:26:18;;;;;;;2.00;1.80;;;19.20;52.20;;;;;;5065155;28;20476;-44
2022/09/03 03:28:47;;;;;;;1.27;1.20;;;19.20;52.10;;;;;;5055548;28;20485;-44
2022/09/03 03:31:19;;;;;;;1.43;1.20;;;19.20;52.10;;;;;;5080350;28;20460;-44
2022/09/03 03:33:54;;;;;;;2.40;1.70;;;19.20;52.20;;;;;;5077895;28;20467;-44
2022/09/03 03:36:23;;;;;;;1.30;1.10;;;19.20;52.30;;;;;;5074234;28;20452;-44
2022/09/03 03:38:53;;;;;;;1.57;1.30;;;19.30;52.40;;;;;;5059114;28;20457;-44
2022/09/03 03:41:25;;;;;;;2.03;1.43;;;19.30;52.20;;;;;;5076959;28;20982;-44
2022/09/03 03:43:57;;;;;;;1.83;1.20;;;19.30;52.10;;;;;;5063625;28;20452;-45
2022/09/03 03:46:27;;;;;;;1.80;1.43;;;19.20;52.30;;;;;;5080152;28;20825;-44
2022/09/03 03:48:54;;;;;;;1.20;1.10;;;19.30;52.40;;;;;;5076797;28;21172;-44
2022/09/03 03:51:20;;;;;;;2.23;1.33;;;19.40;52.50;;;;;;5060883;28;21072;-45
2022/09/03 03:53:47;;;;;;;1.50;1.40;;;19.30;52.30;;;;;;5071958;28;20471;-45
2022/09/03 03:56:15;;;;;;;1.43;1.33;;;19.30;52.40;;;;;;5078424;28;20457;-45
2022/09/03 03:58:42;;;;;;;3.43;1.60;;;19.30;52.30;;;;;;5080988;28;20484;-45
2022/09/03 04:01:15;;;;;;;1.33;1.20;;;19.20;52.50;;;;;;5078084;28;20479;-45
2022/09/03 04:03:42;;;;;;;1.40;1.30;;;19.20;52.60;;;;;;5080609;28;20461;-45
2022/09/03 04:06:11;;;;;;;1.30;1.13;;;19.10;52.80;;;;;;5077677;28;20468;-45
2022/09/03 04:08:40;;;;;;;2.30;1.23;;;19.00;53.00;;;;;;5079799;28;20495;-45
2022/09/03 04:11:10;;;;;;;1.73;1.20;;;19.00;53.10;;;;;;5076522;28;21030;-45
2022/09/03 04:13:39;;;;;;;1.47;1.30;;;19.00;53.20;;;;;;5079982;28;20457;-45
2022/09/03 04:16:12;;;;;;;1.33;0.93;;;18.90;53.30;;;;;;5056945;28;20450;-45
2022/09/03 04:18:40;;;;;;;1.47;1.37;;;19.00;53.40;;;;;;5075965;28;20954;-45
2022/09/03 04:21:09;;;;;;;2.50;1.50;;;18.90;53.50;;;;;;5046942;28;20457;-45
2022/09/03 04:23:43;;;;;;;3.00;1.60;;;18.90;54.40;;;;;;5075277;28;20680;-45
2022/09/03 04:26:12;;;;;;;1.70;1.60;;;19.00;53.80;;;;;;5075343;28;20471;-45
2022/09/03 04:28:40;;;;;;;3.03;1.50;;;19.00;53.70;;;;;;5080221;28;20500;-45
2022/09/03 04:31:09;;;;;;;1.60;1.50;;;18.90;54.00;;;;;;5075953;28;20499;-45
2022/09/03 04:33:37;;;;;;;2.43;1.40;;;18.90;53.80;;;;;;5056852;28;20540;-45
2022/09/03 04:36:12;;;;;;;1.73;1.17;;;18.80;54.00;;;;;;5077137;28;20762;-45
2022/09/03 04:38:41;;;;;;;2.27;1.67;;;18.70;54.10;;;;;;5078235;28;20454;-45
2022/09/03 04:41:10;;;;;;;2.67;1.40;;;18.80;54.30;;;;;;5064515;28;20968;-45
2022/09/03 04:43:37;;;;;;;1.60;1.50;;;18.90;54.00;;;;;;5076515;28;20727;-45
2022/09/03 04:46:06;;;;;;;1.83;1.67;;;18.90;54.10;;;;;;5059656;28;20479;-45
2022/09/03 04:48:46;;;;;;;1.90;1.30;;;18.90;54.10;;;;;;5060477;28;20520;-45
2022/09/03 04:51:15;;;;;;;1.70;1.60;;;18.90;54.20;;;;;;5074903;28;20457;-45
2022/09/03 04:53:44;;;;;;;4.50;1.50;;;18.90;54.10;;;;;;5058078;28;20959;-45
2022/09/03 04:56:15;;;;;;;3.83;1.60;;;18.80;54.20;;;;;;5082860;28;20457;-45
2022/09/03 04:58:43;;;;;;;4.60;1.63;;;18.80;54.20;;;;;;5056313;28;20483;-45
2022/09/03 05:01:14;;;;;;;2.10;1.30;;;18.80;54.30;;;;;;5059484;28;20467;-45
2022/09/03 05:03:41;;;;;;;1.53;1.43;;;18.60;54.50;;;;;;5081037;28;20515;-45
2022/09/03 05:06:08;;;;;;;3.03;1.40;;;18.60;54.70;;;;;;5066143;28;20461;-45
2022/09/03 05:08:36;;;;;;;3.50;1.67;;;18.60;54.90;;;;;;5080649;28;20487;-45
2022/09/03 05:11:04;;;;;;;1.53;1.43;;;18.60;55.00;;;;;;5079605;28;20975;-45
2022/09/03 05:13:32;;;;;;;1.17;1.17;;;18.60;55.00;;;;;;5077935;28;20493;-45
2022/09/03 05:16:00;;;;;;;1.50;1.40;;;18.60;55.40;;;;;;5060749;28;20468;-45
2022/09/03 05:18:28;;;;;;;2.63;1.40;;;18.60;55.60;;;;;;5077649;28;20460;-45
2022/09/03 05:21:04;;;;;;;2.80;1.93;;;18.70;55.90;;;;;;5059137;28;20479;-45
2022/09/03 05:23:31;;;;;;;1.50;1.40;;;18.70;56.30;;;;;;5085310;28;20483;-45
2022/09/03 05:26:08;;;;;;;1.80;1.40;;;18.60;56.20;;;;;;5085532;28;20457;-45
2022/09/03 05:28:38;;;;;;;2.73;1.37;;;18.60;56.00;;;;;;5083003;28;20487;-45
2022/09/03 05:31:06;;;;;;;1.70;1.60;;;18.60;55.80;;;;;;5083653;28;20452;-45
2022/09/03 05:33:38;;;;;;;3.40;1.40;;;18.70;55.90;;;;;;5080129;28;20453;-45
2022/09/03 05:36:08;;;;;;;2.17;1.60;;;18.70;55.90;;;;;;5059918;28;20456;-45
2022/09/03 05:38:34;;;;;;;3.73;1.30;;;18.70;56.00;;;;;;5080887;28;20953;-45
2022/09/03 05:41:03;;;;;;;1.77;1.67;;;18.70;55.90;;;;;;5083234;28;20957;-45
2022/09/03 05:43:31;;;;;;;1.60;1.50;;;18.60;56.30;;;;;;5085807;28;20456;-45
2022/09/03 05:45:59;;;;;;;1.43;1.33;;;18.60;56.50;;;;;;5066486;28;21084;-45
2022/09/03 05:48:30;;;;;;;1.90;1.70;;;18.60;56.40;;;;;;5082169;28;20464;-45
2022/09/03 05:50:59;;;;;;;1.60;1.33;;;18.60;56.70;;;;;;5079254;28;20461;-45
2022/09/03 05:53:28;;;;;;;1.83;1.33;;;18.50;57.20;;;;;;5078138;28;20468;-45
2022/09/03 05:55:59;;;;;;;3.37;1.97;;;18.50;57.30;;;;;;5082626;28;20448;-45
2022/09/03 05:58:42;;;;;;;2.00;1.80;;;18.50;58.10;;;;;;5080254;28;20825;-45
2022/09/03 06:01:09;;;;;;;2.13;1.30;;;18.50;59.50;;;;;;5077981;28;20460;-45
2022/09/03 06:03:36;;;;;;;1.87;1.63;;;18.50;60.10;;;;;;5076503;28;20448;-45
2022/09/03 06:06:04;;;;;;;2.17;1.60;;;18.60;61.90;;;;;;5059677;28;20836;-45
2022/09/03 06:08:31;;;;;;;2.40;1.60;;;18.70;62.50;;;;;;5063633;28;20465;-45
2022/09/03 06:10:58;;;;;;;1.80;1.70;;;18.80;62.70;;;;;;5077955;28;20453;-45
2022/09/03 06:13:25;;;;;;;2.07;1.80;;;18.70;60.30;;;;;;5074400;28;20801;-45
2022/09/03 06:16:03;;;;;;;1.67;1.57;;;18.60;60.10;;;;;;5079862;28;20492;-45
2022/09/03 06:18:30;;;;;;;2.60;1.80;;;18.60;61.20;;;;;;5079828;28;20972;-45
2022/09/03 06:20:59;;;;;;;2.60;2.40;;;18.50;61.80;;;;;;5077461;28;20520;-45
2022/09/03 06:23:27;;;;;;;2.03;1.63;;;18.70;66.80;;;;;;5065974;28;20479;-45
2022/09/03 06:26:07;;;;;;;2.63;2.10;;;18.80;66.70;;;;;;5066137;28;21023;-45
2022/09/03 06:28:40;;;;;;;2.10;2.00;;;18.80;67.70;;;;;;5060029;28;20918;-45
2022/09/03 06:31:08;;;;;;;1.73;1.63;;;18.60;66.40;;;;;;5056183;28;20467;-45
2022/09/03 06:33:37;;;;;;;4.60;2.10;;;18.70;66.90;;;;;;5075301;28;20472;-45
2022/09/03 06:36:06;;;;;;;2.20;2.00;;;18.60;67.40;;;;;;5061241;28;20464;-45
2022/09/03 06:38:36;;;;;;;2.10;1.80;;;18.40;67.10;;;;;;5059055;28;21036;-45
2022/09/03 06:41:09;;;;;;;2.00;1.90;;;18.40;66.00;;;;;;5079807;28;21134;-45
2022/09/03 06:43:38;;;;;;;4.37;1.70;;;18.60;66.40;;;;;;5078088;28;20445;-45
2022/09/03 06:46:08;;;;;;;2.57;2.37;;;18.70;68.10;;;;;;5077325;28;20460;-45
2022/09/03 06:48:36;;;;;;;1.90;1.80;;;18.70;67.60;;;;;;5074125;28;20947;-45
2022/09/03 06:51:05;;;;;;;3.70;2.37;;;18.70;68.10;;;;;;5077249;28;20844;-45
2022/09/03 06:53:37;;;;;;;2.20;2.00;;;18.60;65.60;;;;;;5083397;28;20877;-45
2022/09/03 06:56:09;;;;;;;1.67;1.57;;;18.70;65.10;;;;;;5078679;28;20879;-45
2022/09/03 06:58:41;;;;;;;4.13;2.90;;;18.50;64.40;;;;;;5077686;28;20479;-45
2022/09/03 07:01:14;;;;;;;2.73;2.43;;;18.30;65.30;;;;;;5075830;28;20467;-45
2022/09/03 07:03:42;;;;;;;1.90;1.80;;;18.20;66.20;;;;;;5061855;28;20457;-45
2022/09/03 07:06:17;;;;;;;2.50;2.30;;;18.20;66.60;;;;;;5071327;28;20957;-45
2022/09/03 07:08:45;;;;;;;2.43;2.23;;;18.20;68.00;;;;;;5076828;28;20460;-45
2022/09/03 07:11:14;;;;;;;4.10;2.07;;;18.10;67.00;;;;;;5063347;28;20479;-45
2022/09/03 07:13:44;;;;;;;1.83;1.73;;;18.00;68.10;;;;;;5079379;28;20478;-45
2022/09/03 07:16:20;;;;;;;2.63;2.43;;;18.00;69.10;;;;;;5056458;28;20457;-45
2022/09/03 07:18:48;;;;;;;2.47;2.27;;;17.90;69.10;;;;;;5072504;28;20464;-45
2022/09/03 07:21:16;;;;;;;2.60;2.43;;;17.90;69.80;;;;;;5071809;28;20837;-45
2022/09/03 07:23:44;;;;;;;3.93;2.80;;;17.90;70.50;;;;;;5069965;28;20454;-45
2022/09/03 07:26:14;;;;;;;3.17;2.33;;;17.80;71.50;;;;;;5072636;28;20452;-45
2022/09/03 07:28:42;;;;;;;2.67;2.47;;;17.80;72.50;;;;;;5080793;28;20464;-45
2022/09/03 07:31:15;;;;;;;3.30;3.00;;;17.90;74.90;;;;;;5053325;28;20465;-45
2022/09/03 07:33:42;;;;;;;3.23;3.03;;;17.80;74.20;;;;;;5066105;28;20459;-44
2022/09/03 07:36:13;;;;;;;3.40;3.10;;;17.80;74.90;;;;;;5076729;28;20465;-45
2022/09/03 07:38:43;;;;;;;4.00;2.93;;;17.80;75.90;;;;;;5065668;28;20801;-45
2022/09/03 07:41:12;;;;;;;3.40;3.10;;;17.70;76.80;;;;;;5075462;28;20452;-45
2022/09/03 07:43:51;;;;;;;4.33;3.17;;;17.60;77.30;;;;;;5064278;28;20982;-45
2022/09/03 07:46:22;;;;;;;3.90;3.47;;;17.70;79.60;;;;;;5077457;28;20465;-45
2022/09/03 07:48:50;;;;;;;6.13;3.37;;;17.60;79.60;;;;;;5075906;28;20463;-45
2022/09/03 07:51:19;;;;;;;5.00;3.87;;;17.50;81.20;;;;;;5077687;28;20469;-45
2022/09/03 07:53:47;;;;;;;3.40;3.10;;;17.40;81.60;;;;;;5062990;28;20456;-45
2022/09/03 07:56:14;;;;;;;4.13;3.43;;;17.30;81.00;;;;;;5087918;28;20445;-44
2022/09/03 07:58:41;;;;;;;6.37;3.93;;;17.30;79.60;;;;;;5080695;28;20472;-44
2022/09/03 08:01:17;;;;;;;5.00;4.50;;;17.40;82.10;;;;;;5080319;28;20945;-44
2022/09/03 08:03:48;;;;;;;4.57;4.17;;;17.50;81.70;;;;;;5074953;28;20893;-44
2022/09/03 08:06:17;;;;;;;4.77;3.50;;;17.50;83.20;;;;;;5078769;28;20476;-44
2022/09/03 08:08:44;;;;;;;4.30;3.90;;;17.70;82.00;;;;;;5085378;28;20479;-44
2022/09/03 08:11:27;;;;;;;4.00;3.70;;;17.70;82.90;;;;;;5081069;28;20811;-44
2022/09/03 08:14:01;;;;;;;4.57;3.87;;;17.80;81.80;;;;;;5088006;28;21076;-45
2022/09/03 08:16:30;;;;;;;5.07;4.57;;;17.70;83.40;;;;;;5072706;28;22042;-44
2022/09/03 08:18:58;;;;;;;5.17;4.67;;;17.60;83.20;;;;;;5081921;28;20511;-44
2022/09/03 08:21:26;;;;;;;9.03;5.10;;;17.60;83.90;;;;;;5063483;28;20461;-45
2022/09/03 08:24:01;;;;;;;5.17;4.77;;;17.50;83.70;;;;;;5083688;28;20791;-45
2022/09/03 08:26:40;;;;;;;5.80;4.47;;;17.40;82.80;;;;;;5082068;28;20472;-44
2022/09/03 08:29:07;;;;;;;4.87;4.33;;;17.20;82.90;;;;;;5060830;28;20468;-44
2022/09/03 08:31:35;;;;;;;4.83;4.43;;;17.20;82.50;;;;;;5077500;28;20460;-44
2022/09/03 08:34:05;;;;;;;6.93;4.57;;;17.30;83.30;;;;;;5085995;28;20456;-43
2022/09/03 08:36:38;;;;;;;5.27;4.23;;;17.50;84.70;;;;;;5082196;28;21170;-43
2022/09/03 08:39:08;;;;;;;4.53;4.13;;;17.60;85.60;;;;;;5065454;28;20467;-43
2022/09/03 08:41:44;;;;;;;4.23;3.80;;;17.60;84.00;;;;;;5084716;28;20455;-43
2022/09/03 08:44:20;;;;;;;4.40;4.00;;;17.60;82.60;;;;;;5067859;28;20983;-43
2022/09/03 08:47:06;;;;;;;5.07;4.37;;;17.60;81.50;;;;;;5055920;28;21015;-44
2022/09/03 08:49:38;;;;;;;6.93;4.60;;;17.50;81.00;;;;;;5068119;28;20488;-44
2022/09/03 08:52:17;;;;;;;5.03;4.63;;;17.50;81.00;;;;;;5059527;28;20461;-44
2022/09/03 08:54:45;;;;;;;4.63;4.13;;;17.60;82.20;;;;;;5074253;28;20793;-46
2022/09/03 08:57:15;;;;;;;5.23;4.73;;;17.70;81.50;;;;;;5051959;28;20480;-45
2022/09/03 08:59:42;;;;;;;5.03;4.40;;;17.60;83.10;;;;;;5073251;28;20460;-45
2022/09/03 09:02:16;;;;;;;5.37;4.93;;;17.70;81.80;;;;;;5080269;28;20825;-44
2022/09/03 09:04:57;;;;;;;4.67;4.37;;;17.80;82.10;;;;;;5085990;28;20460;-44
2022/09/03 09:07:52;;;;;;;4.50;3.83;;;17.90;82.10;;;;;;5042076;28;21213;-44
2022/09/03 09:10:44;;;;;;;4.60;4.20;;;17.80;79.50;;;;;;5079057;28;20503;-45
2022/09/03 09:13:23;;;;;;;4.60;4.17;;;17.90;80.20;;;;;;5080386;28;20463;-44
2022/09/03 09:16:38;;;;;;;5.17;4.67;;;18.00;79.30;;;;;;5068398;28;20464;-46
2022/09/03 09:19:30;;;;;;;4.40;4.10;;;18.10;81.00;;;;;;5093615;28;20491;-45
2022/09/03 09:22:04;;;;;;;4.93;4.53;;;18.10;79.00;;;;;;5068070;28;20459;-45
2022/09/03 09:24:44;;;;;;;5.30;4.17;;;18.20;81.20;;;;;;5080675;28;20468;-44
2022/09/03 09:27:16;;;;;;;5.00;4.10;;;18.20;80.30;;;;;;5077779;28;20977;-44
2022/09/03 09:29:47;;;;;;;4.90;4.50;;;18.30;79.80;;;;;;5075128;28;20515;-44
2022/09/03 09:32:18;;;;;;;5.13;4.67;;;18.50;79.60;;;;;;5063804;28;20460;-44
2022/09/03 09:34:47;;;;;;;6.10;5.00;;;18.60;79.60;;;;;;5075768;28;20452;-44
2022/09/03 09:37:18;;;;;;;5.23;4.83;;;18.60;78.60;;;;;;5085175;28;20993;-44
2022/09/03 09:39:57;;;;;;;7.73;4.80;;;18.70;78.20;;;;;;5084827;28;20884;-44
2022/09/03 09:42:25;;;;;;;5.77;5.27;;;18.90;78.10;;;;;;5062390;28;20793;-44
2022/09/03 09:44:51;;;;;;;5.07;4.57;;;19.00;77.00;;;;;;5080635;28;20459;-44
2022/09/03 09:47:29;;;;;;;4.57;4.17;;;19.10;77.40;;;;;;5080538;28;20479;-44
2022/09/03 09:49:58;;;;;;;5.20;4.80;;;19.20;76.50;;;;;;5082953;28;20488;-44
2022/09/03 09:52:28;;;;;;;4.83;4.43;;;19.30;77.20;;;;;;5074348;28;21438;-44
2022/09/03 09:55:13;;;;;;;5.27;4.87;;;19.20;75.20;;;;;;5051011;28;20479;-44
2022/09/03 09:57:39;;;;;;;4.67;4.33;;;19.20;75.20;;;;;;5059275;28;20480;-44
2022/09/03 10:00:12;;;;;;;4.93;4.53;;;19.20;76.00;;;;;;5062502;28;20466;-44
2022/09/03 10:02:51;;;;;;;5.13;4.63;;;19.20;74.90;;;;;;5060164;28;20558;-44
2022/09/03 10:05:29;;;;;;;5.23;4.83;;;19.10;74.30;;;;;;5073439;28;20458;-44
2022/09/03 10:07:58;;;;;;;4.80;4.40;;;19.20;75.20;;;;;;5063794;28;20471;-44
2022/09/03 10:10:27;;;;;;;5.23;4.80;;;19.30;75.40;;;;;;5076545;28;20476;-44
2022/09/03 10:13:02;;;;;;;5.03;4.60;;;19.30;75.20;;;;;;5061526;28;20834;-44
2022/09/03 10:15:49;;;;;;;5.90;5.40;;;19.40;73.80;;;;;;5077084;28;20464;-44
2022/09/03 10:18:38;;;;;;;5.20;4.80;;;19.50;74.10;;;;;;5076957;28;20992;-44
2022/09/03 10:21:11;;;;;;;5.37;4.80;;;19.50;74.30;;;;;;5070943;28;20947;-44
2022/09/03 10:24:07;;;;;;;5.13;4.63;;;19.60;74.40;;;;;;5079107;28;20464;-44
2022/09/03 10:26:35;;;;;;;5.00;4.60;;;19.70;74.60;;;;;;5056842;28;20460;-44
2022/09/03 10:29:05;;;;;;;5.17;4.67;;;19.80;73.40;;;;;;5070499;28;20473;-44
2022/09/03 10:31:40;;;;;;;5.73;5.23;;;19.80;74.30;;;;;;5075041;28;20489;-44
2022/09/03 10:34:06;;;;;;;6.10;5.47;;;20.00;73.80;;;;;;5056239;28;20452;-44
2022/09/03 10:36:49;;;;;;;5.87;5.27;;;20.10;73.60;;;;;;5056070;28;20461;-44
2022/09/03 10:39:31;;;;;;;4.93;4.27;;;20.50;72.70;;;;;;5076549;28;20976;-44
2022/09/03 10:42:26;;;;;;;5.90;4.40;;;21.90;68.40;;;;;;5071067;28;20449;-44
2022/09/03 10:45:17;;;;;;;4.90;4.50;;;23.20;64.30;;;;;;5075842;28;20457;-45
2022/09/03 10:48:03;;;;;;;5.57;5.10;;;23.30;63.10;;;;;;5059195;28;20461;-45
2022/09/03 10:50:52;;;;;;;5.07;4.57;;;22.90;64.30;;;;;;5076611;28;20865;-45
2022/09/03 10:53:31;;;;;;;6.63;4.80;;;22.50;64.60;;;;;;5065465;28;20457;-45
2022/09/03 10:56:16;;;;;;;6.70;5.20;;;22.20;65.40;;;;;;5079249;28;20923;-45
2022/09/03 10:59:20;;;;;;;6.60;5.10;;;22.00;66.00;;;;;;5082802;28;20472;-44
2022/09/03 11:02:17;;;;;;;5.67;5.17;;;21.80;67.30;;;;;;5079645;28;21024;-44
2022/09/03 11:04:59;;;;;;;6.27;5.73;;;21.60;67.20;;;;;;5082190;28;20921;-44
2022/09/03 11:07:36;;;;;;;5.70;5.20;;;21.40;68.50;;;;;;5053390;28;21002;-44
2022/09/03 11:10:31;;;;;;;7.27;4.90;;;21.20;69.60;;;;;;5075620;28;20489;-44
2022/09/03 11:13:14;;;;;;;5.43;5.03;;;21.10;70.80;;;;;;5056453;28;20475;-44
2022/09/03 11:16:03;;;;;;;5.47;4.90;;;21.00;70.60;;;;;;5075176;28;20871;-44
2022/09/03 11:18:43;;;;;;;5.77;5.27;;;21.00;71.60;;;;;;5071744;28;20465;-44
2022/09/03 11:21:13;;;;;;;5.70;5.20;;;21.00;70.70;;;;;;5053815;28;20960;-44
2022/09/03 11:23:44;;;;;;;5.67;5.17;;;21.20;70.60;;;;;;5064309;28;20993;-44
2022/09/03 11:26:15;;;;;;;6.20;5.70;;;21.10;70.20;;;;;;5067988;28;20962;-44
2022/09/03 11:28:45;;;;;;;6.27;5.33;;;21.10;70.20;;;;;;5068762;28;21099;-44
2022/09/03 11:31:46;;;;;;;6.23;5.13;;;21.00;70.40;;;;;;5052350;28;20496;-44
2022/09/03 11:34:27;;;;;;;6.40;5.90;;;21.00;70.60;;;;;;5058964;28;20455;-45
2022/09/03 11:37:17;;;;;;;5.40;4.90;;;21.10;70.50;;;;;;5076252;28;20459;-44
2022/09/03 11:39:52;;;;;;;5.53;4.50;;;21.30;70.10;;;;;;5067899;28;20456;-44
2022/09/03 11:42:41;;;;;;;5.60;5.10;;;21.30;70.00;;;;;;5054913;28;20477;-44
2022/09/03 11:45:26;;;;;;;5.27;4.87;;;21.40;69.60;;;;;;5046919;28;20452;-45
2022/09/03 11:47:53;;;;;;;11.27;5.50;;;21.40;69.80;;;;;;5052693;28;20464;-44
2022/09/03 11:50:28;;;;;;;5.00;4.60;;;21.30;70.00;;;;;;5072893;28;20499;-44
2022/09/03 11:53:08;;;;;;;4.80;4.40;;;21.30;70.20;;;;;;5075516;28;21042;-44
2022/09/03 11:55:58;;;;;;;5.10;4.20;;;21.40;69.70;;;;;;5052121;28;20462;-44
2022/09/03 11:58:34;;;;;;;5.53;5.07;;;21.40;69.70;;;;;;5041732;28;20512;-44
2022/09/03 12:01:03;;;;;;;5.60;4.50;;;21.50;69.60;;;;;;5077550;28;20460;-44
2022/09/03 12:03:50;;;;;;;6.47;5.43;;;21.50;69.60;;;;;;5057583;28;20467;-44
2022/09/03 12:06:32;;;;;;;6.27;5.67;;;21.60;69.50;;;;;;5077192;28;20477;-44
2022/09/03 12:09:35;;;;;;;8.90;5.27;;;21.60;69.90;;;;;;5068886;28;20473;-44
2022/09/03 12:12:39;;;;;;;5.60;5.10;;;21.50;69.90;;;;;;5072586;28;20488;-44
2022/09/03 12:15:17;;;;;;;4.57;4.17;;;21.60;69.70;;;;;;5076349;28;20958;-44
2022/09/03 12:18:18;;;;;;;5.63;4.87;;;21.60;69.90;;;;;;5060447;28;20475;-44
2022/09/03 12:20:47;;;;;;;3.67;3.40;;;21.70;69.80;;;;;;5077469;28;20976;-44
2022/09/03 12:23:29;;;;;;;4.43;4.10;;;21.80;69.50;;;;;;5072836;28;20460;-44
2022/09/03 12:26:13;;;;;;;5.87;4.23;;;21.80;69.60;;;;;;5064963;28;20463;-44
2022/09/03 12:28:44;;;;;;;3.80;3.47;;;21.90;69.20;;;;;;5084543;28;20455;-44
2022/09/03 12:31:22;;;;;;;4.37;3.73;;;22.00;68.80;;;;;;5077369;28;20488;-44
2022/09/03 12:33:52;;;;;;;4.00;3.60;;;22.10;68.60;;;;;;5083080;28;20967;-45
2022/09/03 12:36:21;;;;;;;4.60;4.07;;;22.10;68.70;;;;;;5082724;28;20465;-44
2022/09/03 12:38:49;;;;;;;4.27;3.87;;;22.10;68.40;;;;;;5069664;28;20464;-44
2022/09/03 12:41:36;;;;;;;4.17;3.77;;;22.20;68.30;;;;;;5066490;28;20488;-44
2022/09/03 12:44:04;;;;;;;3.50;3.20;;;22.30;67.80;;;;;;5082988;28;20882;-44
2022/09/03 12:46:32;;;;;;;3.03;2.83;;;22.30;68.00;;;;;;5062914;28;20452;-44
2022/09/03 12:49:06;;;;;;;3.07;2.87;;;22.30;67.80;;;;;;5084562;28;20467;-44
2022/09/03 12:52:02;;;;;;;2.90;2.70;;;22.30;67.60;;;;;;5084595;28;20984;-44
2022/09/03 12:54:35;;;;;;;2.67;2.47;;;22.20;67.30;;;;;;5068774;28;21069;-44
2022/09/03 12:57:02;;;;;;;4.57;3.30;;;22.20;67.30;;;;;;5068971;28;20483;-44
2022/09/03 12:59:33;;;;;;;2.50;2.30;;;22.20;67.60;;;;;;5087396;28;20684;-44
2022/09/03 13:02:15;;;;;;;2.00;1.90;;;22.30;67.50;;;;;;5082392;28;20512;-45
2022/09/03 13:04:42;;;;;;;2.73;2.53;;;22.40;67.10;;;;;;5075804;28;20505;-44
2022/09/03 13:07:12;;;;;;;2.63;2.43;;;22.50;66.60;;;;;;5087287;28;20467;-44
2022/09/03 13:09:40;;;;;;;2.70;2.50;;;22.40;66.30;;;;;;5073751;28;20464;-44
2022/09/03 13:12:27;;;;;;;3.50;2.40;;;22.50;66.30;;;;;;5070109;28;20491;-44
2022/09/03 13:14:55;;;;;;;3.70;2.53;;;22.40;67.00;;;;;;5075342;28;20742;-44
2022/09/03 13:17:51;;;;;;;2.63;2.43;;;22.50;66.50;;;;;;5076815;28;20463;-45
2022/09/03 13:20:33;;;;;;;2.87;2.63;;;22.50;67.00;;;;;;5083398;28;20872;-44
2022/09/03 13:23:28;;;;;;;2.77;2.57;;;22.60;66.90;;;;;;5082110;28;20459;-44
2022/09/03 13:26:09;;;;;;;2.40;2.30;;;22.60;66.60;;;;;;5065708;28;20460;-44